createdAt,value
2018-11-12T00:02:22.215Z,0.70
2018-11-12T00:04:50.560Z,0.70
2018-11-12T00:07:18.788Z,0.67
2018-11-12T00:09:47.043Z,0.60
2018-11-12T00:12:15.255Z,0.70
2018-11-12T00:14:43.466Z,0.70
2018-11-12T00:17:11.699Z,0.70
2018-11-12T00:19:40.672Z,0.70
2018-11-12T00:22:09.734Z,0.70
2018-11-12T00:24:37.977Z,0.60
2018-11-12T00:27:06.236Z,0.70
2018-11-12T00:29:35.213Z,0.70
2018-11-12T00:32:04.273Z,0.70
2018-11-12T00:34:32.501Z,0.70
2018-11-12T00:37:01.539Z,0.60
2018-11-12T00:39:29.792Z,0.70
2018-11-12T00:41:58.049Z,0.60
2018-11-12T00:44:27.021Z,0.70
2018-11-12T00:46:56.022Z,0.70
2018-11-12T00:49:24.997Z,0.60
2018-11-12T00:51:53.221Z,0.60
2018-11-12T00:54:21.432Z,0.70
2018-11-12T00:56:49.683Z,0.60
2018-11-12T00:59:17.888Z,0.67
2018-11-12T01:01:46.139Z,0.70
2018-11-12T01:04:14.460Z,0.70
2018-11-12T01:06:43.398Z,0.70
2018-11-12T01:09:11.598Z,0.70
2018-11-12T01:11:39.823Z,0.70
2018-11-12T01:14:08.792Z,0.70
2018-11-12T01:16:37.026Z,0.70
2018-11-12T01:19:05.287Z,0.70
2018-11-12T01:21:34.253Z,0.70
2018-11-12T01:24:02.499Z,0.63
2018-11-12T01:26:30.717Z,0.70
2018-11-12T01:28:59.747Z,0.70
2018-11-12T01:31:27.964Z,0.70
2018-11-12T01:33:56.188Z,0.70
2018-11-12T01:36:24.440Z,0.70
2018-11-12T01:38:53.426Z,0.70
2018-11-12T01:41:22.444Z,0.70
2018-11-12T01:43:50.722Z,0.70
2018-11-12T01:46:19.699Z,0.70
2018-11-12T01:48:47.903Z,0.70
2018-11-12T01:51:16.122Z,0.70
2018-11-12T01:53:44.352Z,0.60
2018-11-12T01:56:12.573Z,0.70
2018-11-12T01:58:40.840Z,0.70
2018-11-12T02:01:09.170Z,0.70
2018-11-12T02:03:38.192Z,0.80
2018-11-12T02:06:06.431Z,0.70
2018-11-12T02:08:35.435Z,0.70
2018-11-12T02:11:03.653Z,0.70
2018-11-12T02:13:31.961Z,0.70
2018-11-12T02:16:00.147Z,0.70
2018-11-12T02:18:29.133Z,0.70
2018-11-12T02:20:57.353Z,0.70
2018-11-12T02:23:25.559Z,0.70
2018-11-12T02:25:53.775Z,0.70
2018-11-12T02:28:22.757Z,0.70
2018-11-12T02:30:51.011Z,0.70
2018-11-12T02:33:20.079Z,0.70
2018-11-12T02:35:48.211Z,0.70
2018-11-12T02:38:17.231Z,0.70
2018-11-12T02:40:45.474Z,0.70
2018-11-12T02:43:13.727Z,0.70
2018-11-12T02:45:41.977Z,0.70
2018-11-12T02:48:10.238Z,0.70
2018-11-12T02:50:38.476Z,0.70
2018-11-12T02:53:06.738Z,0.70
2018-11-12T02:55:34.974Z,0.63
2018-11-12T02:58:03.209Z,0.70
2018-11-12T03:00:31.444Z,0.70
2018-11-12T03:02:59.651Z,0.70
2018-11-12T03:05:27.858Z,0.70
2018-11-12T03:07:56.079Z,0.70
2018-11-12T03:10:24.336Z,0.70
2018-11-12T03:12:52.586Z,0.70
2018-11-12T03:15:21.537Z,0.70
2018-11-12T03:17:49.823Z,0.70
2018-11-12T03:20:18.027Z,0.70
2018-11-12T03:22:47.014Z,0.70
2018-11-12T03:25:16.025Z,0.63
2018-11-12T03:27:45.088Z,0.70
2018-11-12T03:30:14.036Z,0.70
2018-11-12T03:32:42.240Z,0.70
2018-11-12T03:35:10.437Z,0.70
2018-11-12T03:37:38.698Z,0.70
2018-11-12T03:40:06.901Z,0.70
2018-11-12T03:42:35.885Z,0.60
2018-11-12T03:45:04.137Z,0.70
2018-11-12T03:47:32.399Z,0.70
2018-11-12T03:50:00.576Z,0.70
2018-11-12T03:52:28.838Z,0.70
2018-11-12T03:54:57.034Z,0.70
2018-11-12T03:57:25.304Z,0.70
2018-11-12T03:59:53.532Z,0.70
2018-11-12T04:02:22.520Z,0.70
2018-11-12T04:04:51.484Z,0.70
2018-11-12T04:07:19.744Z,0.70
2018-11-12T04:09:48.012Z,0.73
2018-11-12T04:12:16.233Z,0.70
2018-11-12T04:14:44.442Z,0.80
2018-11-12T04:17:12.705Z,0.70
2018-11-12T04:19:40.906Z,0.70
2018-11-12T04:22:09.160Z,0.70
2018-11-12T04:24:38.166Z,0.70
2018-11-12T04:27:06.372Z,0.70
2018-11-12T04:29:34.617Z,0.70
2018-11-12T04:32:02.876Z,0.80
2018-11-12T04:34:31.840Z,0.70
2018-11-12T04:37:00.096Z,0.60
2018-11-12T04:39:28.348Z,0.70
2018-11-12T04:41:56.569Z,0.70
2018-11-12T04:44:24.768Z,0.80
2018-11-12T04:46:53.748Z,0.70
2018-11-12T04:49:21.998Z,0.80
2018-11-12T04:51:50.210Z,0.70
2018-11-12T04:54:18.416Z,0.70
2018-11-12T04:56:46.667Z,0.70
2018-11-12T04:59:14.970Z,0.80
2018-11-12T05:01:43.117Z,0.80
2018-11-12T05:04:11.320Z,0.70
2018-11-12T05:06:39.508Z,0.70
2018-11-12T05:09:07.781Z,0.80
2018-11-12T05:11:36.025Z,0.70
2018-11-12T05:14:04.290Z,0.80
2018-11-12T05:16:32.553Z,0.70
2018-11-12T05:19:01.522Z,0.80
2018-11-12T05:21:29.726Z,0.70
2018-11-12T05:23:57.981Z,0.80
2018-11-12T05:26:26.189Z,0.70
2018-11-12T05:28:54.460Z,0.60
2018-11-12T05:31:22.656Z,0.70
2018-11-12T05:33:51.636Z,0.77
2018-11-12T05:36:19.892Z,0.70
2018-11-12T05:38:48.149Z,0.63
2018-11-12T05:41:16.344Z,0.70
2018-11-12T05:43:44.610Z,0.70
2018-11-12T05:46:12.813Z,0.73
2018-11-12T05:48:41.030Z,0.70
2018-11-12T05:51:09.239Z,0.80
2018-11-12T05:53:37.458Z,0.70
2018-11-12T05:56:06.422Z,0.70
2018-11-12T05:58:34.647Z,0.80
2018-11-12T06:01:02.891Z,0.73
2018-11-12T06:03:31.168Z,0.73
2018-11-12T06:05:59.369Z,0.70
2018-11-12T06:08:27.649Z,0.70
2018-11-12T06:10:56.604Z,0.70
2018-11-12T06:13:24.821Z,0.70
2018-11-12T06:15:53.028Z,0.70
2018-11-12T06:18:21.290Z,0.70
2018-11-12T06:20:49.499Z,0.70
2018-11-12T06:23:17.986Z,0.70
2018-11-12T06:25:46.215Z,0.70
2018-11-12T06:28:14.431Z,0.70
2018-11-12T06:30:42.682Z,0.70
2018-11-12T06:33:10.942Z,0.70
2018-11-12T06:35:39.179Z,0.70
2018-11-12T06:38:07.447Z,0.70
2018-11-12T06:40:35.641Z,0.70
2018-11-12T06:43:04.732Z,0.70
2018-11-12T06:45:32.923Z,0.70
2018-11-12T06:48:01.118Z,0.70
2018-11-12T06:50:29.337Z,0.70
2018-11-12T06:52:57.709Z,0.70
2018-11-12T06:55:25.772Z,0.70
2018-11-12T06:57:53.987Z,0.73
2018-11-12T07:00:22.235Z,0.80
2018-11-12T07:02:50.455Z,0.70
2018-11-12T07:05:19.469Z,0.70
2018-11-12T07:07:47.701Z,0.70
2018-11-12T07:10:15.953Z,0.70
2018-11-12T07:12:44.194Z,0.70
2018-11-12T07:15:12.451Z,0.70
2018-11-12T07:17:41.438Z,0.70
2018-11-12T07:20:10.457Z,0.70
2018-11-12T07:22:39.429Z,0.70
2018-11-12T07:25:08.434Z,0.70
2018-11-12T07:27:36.616Z,0.70
2018-11-12T07:30:04.877Z,0.80
2018-11-12T07:32:33.089Z,0.70
2018-11-12T07:35:01.337Z,0.70
2018-11-12T07:37:29.571Z,0.70
2018-11-12T07:39:57.785Z,0.70
2018-11-12T07:42:25.998Z,0.70
2018-11-12T07:44:54.248Z,0.70
2018-11-12T07:47:23.249Z,0.70
2018-11-12T07:49:51.502Z,0.70
2018-11-12T07:52:20.484Z,0.70
2018-11-12T07:54:48.739Z,0.70
2018-11-12T07:57:17.008Z,0.70
2018-11-12T07:59:45.266Z,0.70
2018-11-12T08:02:13.511Z,0.70
2018-11-12T08:04:42.530Z,0.70
2018-11-12T08:07:10.896Z,0.70
2018-11-12T08:09:39.936Z,0.70
2018-11-12T08:12:08.149Z,0.70
2018-11-12T08:14:36.430Z,0.70
2018-11-12T08:17:04.678Z,0.70
2018-11-12T08:19:32.882Z,0.70
2018-11-12T08:22:01.906Z,0.70
2018-11-12T08:24:30.189Z,0.60
2018-11-12T08:26:59.182Z,0.70
2018-11-12T08:29:27.402Z,0.70
2018-11-12T08:31:55.625Z,0.70
2018-11-12T08:34:23.897Z,0.60
2018-11-12T08:36:52.064Z,0.70
2018-11-12T08:39:20.360Z,0.70
2018-11-12T08:41:48.522Z,0.70
2018-11-12T08:44:16.748Z,0.70
2018-11-12T08:46:44.962Z,0.70
2018-11-12T08:49:14.185Z,0.70
2018-11-12T08:51:42.264Z,0.60
2018-11-12T08:54:10.484Z,0.70
2018-11-12T08:56:38.691Z,0.67
2018-11-12T08:59:06.983Z,0.70
2018-11-12T09:01:35.131Z,0.70
2018-11-12T09:04:04.210Z,0.70
2018-11-12T09:06:32.385Z,0.70
2018-11-12T09:09:00.651Z,0.70
2018-11-12T09:11:28.877Z,0.70
2018-11-12T09:13:57.131Z,0.60
2018-11-12T09:16:26.103Z,0.70
2018-11-12T09:18:54.386Z,0.70
2018-11-12T09:21:22.624Z,0.60
2018-11-12T09:23:50.904Z,0.60
2018-11-12T09:26:19.109Z,0.70
2018-11-12T09:28:47.405Z,0.60
2018-11-12T09:31:16.945Z,0.60
2018-11-12T09:33:43.928Z,0.60
2018-11-12T09:36:12.105Z,0.70
2018-11-12T09:38:40.399Z,0.60
2018-11-12T09:41:08.645Z,0.60
2018-11-12T09:43:36.923Z,0.60
2018-11-12T09:46:05.139Z,0.60
2018-11-12T09:48:33.406Z,0.60
2018-11-12T09:51:01.620Z,0.60
2018-11-12T09:53:29.936Z,0.70
2018-11-12T09:55:58.219Z,0.53
2018-11-12T09:58:27.261Z,0.60
2018-11-12T10:00:56.604Z,0.60
2018-11-12T10:03:25.904Z,0.70
2018-11-12T10:05:54.633Z,0.67
2018-11-12T10:08:23.340Z,0.60
2018-11-12T10:10:52.048Z,0.60
2018-11-12T10:13:21.416Z,0.60
2018-11-12T10:15:50.272Z,0.60
2018-11-12T10:18:15.574Z,0.60
2018-11-12T10:20:43.780Z,0.60
2018-11-12T10:23:12.785Z,0.53
2018-11-12T10:25:41.818Z,0.60
2018-11-12T10:28:10.068Z,0.60
2018-11-12T10:30:39.032Z,0.60
2018-11-12T10:33:07.304Z,0.60
2018-11-12T10:35:35.557Z,0.60
2018-11-12T10:38:03.781Z,0.50
2018-11-12T10:40:32.762Z,0.50
2018-11-12T10:43:02.561Z,0.53
2018-11-12T10:45:30.761Z,0.60
2018-11-12T10:47:59.814Z,0.60
2018-11-12T10:50:28.749Z,0.60
2018-11-12T10:52:57.779Z,0.60
2018-11-12T10:55:26.174Z,0.60
2018-11-12T10:57:55.022Z,0.60
2018-11-12T11:00:24.034Z,0.57
2018-11-12T11:02:52.304Z,0.60
2018-11-12T11:05:21.253Z,0.60
2018-11-12T11:07:49.532Z,0.60
2018-11-12T11:10:17.746Z,0.60
2018-11-12T11:12:46.777Z,0.60
2018-11-12T11:15:15.044Z,0.60
2018-11-12T11:17:43.324Z,0.50
2018-11-12T11:20:11.572Z,0.60
2018-11-12T11:22:39.815Z,0.60
2018-11-12T11:25:08.068Z,0.60
2018-11-12T11:27:36.273Z,0.60
2018-11-12T11:30:05.307Z,0.60
2018-11-12T11:32:33.538Z,0.60
2018-11-12T11:35:01.821Z,0.50
2018-11-12T11:37:30.079Z,0.60
2018-11-12T11:39:58.344Z,0.57
2018-11-12T11:42:26.600Z,0.60
2018-11-12T11:44:54.842Z,0.60
2018-11-12T11:47:23.968Z,0.60
2018-11-12T11:49:52.079Z,0.60
2018-11-12T11:52:20.362Z,0.60
2018-11-12T11:54:48.623Z,0.60
2018-11-12T11:57:16.958Z,0.60
2018-11-12T11:59:45.896Z,0.57
2018-11-12T12:02:14.172Z,0.53
2018-11-12T12:04:42.367Z,0.60
2018-11-12T12:07:10.616Z,0.57
2018-11-12T12:09:38.843Z,0.50
2018-11-12T12:12:07.056Z,0.50
2018-11-12T12:14:35.286Z,0.50
2018-11-12T12:17:03.540Z,0.53
2018-11-12T12:19:31.772Z,0.50
2018-11-12T12:22:00.051Z,0.50
2018-11-12T12:24:28.364Z,0.57
2018-11-12T12:26:56.532Z,0.40
2018-11-12T12:29:24.805Z,0.50
2018-11-12T12:31:53.010Z,0.50
2018-11-12T12:34:21.274Z,0.43
2018-11-12T12:36:49.535Z,0.50
2018-11-12T12:39:18.509Z,0.50
2018-11-12T12:41:46.722Z,0.50
2018-11-12T12:44:14.987Z,0.50
2018-11-12T12:46:43.248Z,0.60
2018-11-12T12:49:11.539Z,0.50
2018-11-12T12:51:39.841Z,0.50
2018-11-12T12:54:08.768Z,0.50
2018-11-12T12:56:37.740Z,0.50
2018-11-12T12:59:06.744Z,0.60
2018-11-12T13:01:35.845Z,0.60
2018-11-12T13:04:04.062Z,0.50
2018-11-12T13:06:32.345Z,0.60
2018-11-12T13:09:01.343Z,0.50
2018-11-12T13:11:29.547Z,0.57
2018-11-12T13:13:57.872Z,0.60
2018-11-12T13:16:26.019Z,0.50
2018-11-12T13:18:55.015Z,0.50
2018-11-12T13:21:24.064Z,0.60
2018-11-12T13:23:52.220Z,0.53
2018-11-12T13:26:20.484Z,0.60
2018-11-12T13:28:48.660Z,0.50
2018-11-12T13:31:16.876Z,0.50
2018-11-12T13:33:45.121Z,0.60
2018-11-12T13:36:13.372Z,0.60
2018-11-12T13:38:42.380Z,0.60
2018-11-12T13:41:11.369Z,0.50
2018-11-12T13:43:39.677Z,0.60
2018-11-12T13:46:07.931Z,0.60
2018-11-12T13:48:36.958Z,0.60
2018-11-12T13:51:05.151Z,0.57
2018-11-12T13:53:33.393Z,0.60
2018-11-12T13:56:01.654Z,0.60
2018-11-12T13:58:29.885Z,0.60
2018-11-12T14:00:58.104Z,0.60
2018-11-12T14:03:26.317Z,0.60
2018-11-12T14:05:54.579Z,0.60
2018-11-12T14:08:22.797Z,0.60
2018-11-12T14:10:51.039Z,0.50
2018-11-12T14:13:20.177Z,0.50
2018-11-12T14:15:48.451Z,0.60
2018-11-12T14:18:16.671Z,0.60
2018-11-12T14:20:44.923Z,0.60
2018-11-12T14:23:13.145Z,0.60
2018-11-12T14:25:41.412Z,0.60
2018-11-12T14:28:09.663Z,0.60
2018-11-12T14:30:37.866Z,0.60
2018-11-12T14:33:06.183Z,0.50
2018-11-12T14:35:34.381Z,0.60
2018-11-12T14:38:02.603Z,0.60
2018-11-12T14:40:30.824Z,0.60
2018-11-12T14:42:59.852Z,0.60
2018-11-12T14:45:28.061Z,0.60
2018-11-12T14:47:56.274Z,0.60
2018-11-12T14:50:25.282Z,0.60
2018-11-12T14:52:54.271Z,0.57
2018-11-12T14:55:23.252Z,0.60
2018-11-12T14:57:52.278Z,0.60
2018-11-12T15:00:20.552Z,0.60
2018-11-12T15:02:49.520Z,0.60
2018-11-12T15:05:18.531Z,0.60
2018-11-12T15:07:47.498Z,0.60
2018-11-12T15:10:15.729Z,0.60
2018-11-12T15:12:43.951Z,0.60
2018-11-12T15:15:12.261Z,0.60
2018-11-12T15:17:40.426Z,0.60
2018-11-12T15:20:09.420Z,0.50
2018-11-12T15:22:37.664Z,0.60
2018-11-12T15:25:05.910Z,0.60
2018-11-12T15:27:34.156Z,0.60
2018-11-12T15:30:03.176Z,0.60
2018-11-12T15:32:31.392Z,0.60
2018-11-12T15:34:59.638Z,0.60
2018-11-12T15:37:27.922Z,0.60
2018-11-12T15:39:56.124Z,0.60
2018-11-12T15:42:24.347Z,0.60
2018-11-12T15:44:52.624Z,0.60
2018-11-12T15:47:20.909Z,0.60
2018-11-12T15:49:49.147Z,0.50
2018-11-12T15:52:18.184Z,0.60
2018-11-12T15:54:46.390Z,0.50
2018-11-12T15:57:14.758Z,0.70
2018-11-12T15:59:42.930Z,0.60
2018-11-12T16:02:11.126Z,0.60
2018-11-12T16:04:39.412Z,0.70
2018-11-12T16:07:07.639Z,0.60
2018-11-12T16:09:35.900Z,0.60
2018-11-12T16:12:04.177Z,0.60
2018-11-12T16:14:32.355Z,0.60
2018-11-12T16:17:00.596Z,0.60
2018-11-12T16:19:28.858Z,0.60
2018-11-12T16:21:57.074Z,0.60
2018-11-12T16:24:25.330Z,0.60
2018-11-12T16:26:53.550Z,0.60
2018-11-12T16:29:21.819Z,0.70
2018-11-12T16:31:50.042Z,0.60
2018-11-12T16:34:18.302Z,0.60
2018-11-12T16:36:46.518Z,0.60
2018-11-12T16:39:14.773Z,0.60
2018-11-12T16:41:43.084Z,0.60
2018-11-12T16:44:11.324Z,0.60
2018-11-12T16:46:39.581Z,0.60
2018-11-12T16:49:07.884Z,0.60
2018-11-12T16:51:36.123Z,0.60
2018-11-12T16:54:04.381Z,0.60
2018-11-12T16:56:32.587Z,0.60
2018-11-12T16:59:00.806Z,0.60
2018-11-12T17:01:29.842Z,0.60
2018-11-12T17:03:58.789Z,0.60
2018-11-12T17:06:27.819Z,0.60
2018-11-12T17:08:56.048Z,0.63
2018-11-12T17:11:24.877Z,0.60
2018-11-12T17:13:53.104Z,0.60
2018-11-12T17:16:21.327Z,0.60
2018-11-12T17:18:49.547Z,0.60
2018-11-12T17:21:17.815Z,0.67
2018-11-12T17:23:46.078Z,0.60
2018-11-12T17:26:14.329Z,0.70
2018-11-12T17:28:43.365Z,0.70
2018-11-12T17:31:11.633Z,0.60
2018-11-12T17:33:39.872Z,0.67
2018-11-12T17:36:08.876Z,0.70
2018-11-12T17:38:37.106Z,0.60
2018-11-12T17:41:05.389Z,0.70
2018-11-12T17:43:33.630Z,0.60
2018-11-12T17:46:01.897Z,0.60
2018-11-12T17:48:30.147Z,0.60
2018-11-12T17:50:59.153Z,0.60
2018-11-12T17:53:27.426Z,0.60
2018-11-12T17:55:57.671Z,0.60
2018-11-12T17:58:25.878Z,0.70
2018-11-12T18:00:54.139Z,0.70
2018-11-12T18:03:22.402Z,0.60
2018-11-12T18:05:50.646Z,0.70
2018-11-12T18:08:19.649Z,0.70
2018-11-12T18:10:47.906Z,0.60
2018-11-12T18:13:16.189Z,0.70
2018-11-12T18:15:45.159Z,0.60
2018-11-12T18:18:13.461Z,0.67
2018-11-12T18:20:43.185Z,0.70
2018-11-12T18:23:12.219Z,0.70
2018-11-12T18:25:40.437Z,0.60
2018-11-12T18:28:09.463Z,0.70
2018-11-12T18:30:37.917Z,0.70
2018-11-12T18:33:05.923Z,0.60
2018-11-12T18:35:34.205Z,0.70
2018-11-12T18:38:02.508Z,0.70
2018-11-12T18:40:30.688Z,0.70
2018-11-12T18:42:58.922Z,0.60
2018-11-12T18:45:27.143Z,0.70
2018-11-12T18:47:55.407Z,0.60
2018-11-12T18:50:24.388Z,0.60
2018-11-12T18:52:52.599Z,0.60
2018-11-12T18:55:20.817Z,0.70
2018-11-12T18:57:49.105Z,0.60
2018-11-12T19:00:17.396Z,0.60
2018-11-12T19:02:45.665Z,0.60
2018-11-12T19:05:14.027Z,0.70
2018-11-12T19:07:42.201Z,0.60
2018-11-12T19:10:10.424Z,0.70
2018-11-12T19:12:38.644Z,0.70
2018-11-12T19:15:07.651Z,0.60
2018-11-12T19:17:35.902Z,0.70
2018-11-12T19:20:04.883Z,0.70
2018-11-12T19:22:33.105Z,0.63
2018-11-12T19:25:01.375Z,0.60
2018-11-12T19:27:29.593Z,0.70
2018-11-12T19:29:57.859Z,0.70
2018-11-12T19:32:26.096Z,0.70
2018-11-12T19:34:54.368Z,0.70
2018-11-12T19:37:23.341Z,0.70
2018-11-12T19:39:51.550Z,0.63
2018-11-12T19:42:19.776Z,0.70
2018-11-12T19:44:48.007Z,0.70
2018-11-12T19:47:16.230Z,0.60
2018-11-12T19:49:44.512Z,0.70
2018-11-12T19:52:12.861Z,0.70
2018-11-12T19:54:41.067Z,0.60
2018-11-12T19:57:09.376Z,0.70
2018-11-12T19:59:38.354Z,0.70
2018-11-12T20:02:07.362Z,0.67
2018-11-12T20:04:36.341Z,0.70
2018-11-12T20:07:05.397Z,0.60
2018-11-12T20:09:33.651Z,0.70
2018-11-12T20:12:01.912Z,0.70
2018-11-12T20:14:30.131Z,0.70
2018-11-12T20:16:58.415Z,0.70
2018-11-12T20:19:26.631Z,0.70
2018-11-12T20:21:55.622Z,0.70
2018-11-12T20:24:24.605Z,0.70
2018-11-12T20:26:53.604Z,0.70
2018-11-12T20:29:22.635Z,0.70
2018-11-12T20:31:50.895Z,0.70
2018-11-12T20:34:19.984Z,0.60
2018-11-12T20:36:48.255Z,0.70
2018-11-12T20:39:17.261Z,0.70
2018-11-12T20:41:46.278Z,0.60
2018-11-12T20:44:14.559Z,0.67
2018-11-12T20:46:42.818Z,0.60
2018-11-12T20:49:11.795Z,0.70
2018-11-12T20:51:40.857Z,0.70
2018-11-12T20:54:09.122Z,0.70
2018-11-12T20:56:37.337Z,0.70
2018-11-12T20:59:06.380Z,0.70
2018-11-12T21:01:34.679Z,0.70
2018-11-12T21:04:02.939Z,0.70
2018-11-12T21:06:31.173Z,0.70
2018-11-12T21:09:00.207Z,0.70
2018-11-12T21:11:28.504Z,0.60
2018-11-12T21:13:56.671Z,0.70
2018-11-12T21:16:24.953Z,0.70
2018-11-12T21:18:53.172Z,0.70
2018-11-12T21:21:22.197Z,0.60
2018-11-12T21:23:50.443Z,0.70
2018-11-12T21:26:19.435Z,0.60
2018-11-12T21:28:48.497Z,0.70
2018-11-12T21:31:16.715Z,0.70
2018-11-12T21:33:44.950Z,0.67
2018-11-12T21:36:13.221Z,0.70
2018-11-12T21:38:41.481Z,0.70
2018-11-12T21:41:09.741Z,0.70
2018-11-12T21:43:37.995Z,0.70
2018-11-12T21:46:06.302Z,0.70
2018-11-12T21:48:34.538Z,0.60
2018-11-12T21:51:03.543Z,0.60
2018-11-12T21:53:32.567Z,0.70
2018-11-12T21:56:00.838Z,0.60
2018-11-12T21:58:29.085Z,0.60
2018-11-12T22:00:57.339Z,0.60
2018-11-12T22:03:25.571Z,0.60
2018-11-12T22:05:53.829Z,0.70
2018-11-12T22:08:22.884Z,0.60
2018-11-12T22:10:51.123Z,0.70
2018-11-12T22:13:19.338Z,0.63
2018-11-12T22:15:47.647Z,0.70
2018-11-12T22:18:16.653Z,0.70
2018-11-12T22:20:44.893Z,0.70
2018-11-12T22:23:13.190Z,0.70
2018-11-12T22:25:42.180Z,0.70
2018-11-12T22:28:11.210Z,0.70
2018-11-12T22:30:39.364Z,0.70
2018-11-12T22:33:07.620Z,0.70
2018-11-12T22:35:35.889Z,0.70
2018-11-12T22:38:04.140Z,0.70
2018-11-12T22:40:32.388Z,0.70
2018-11-12T22:43:00.710Z,0.70
2018-11-12T22:45:28.956Z,0.70
2018-11-12T22:47:57.186Z,0.70
2018-11-12T22:50:26.190Z,0.70
2018-11-12T22:52:55.236Z,0.70
2018-11-12T22:55:23.475Z,0.70
2018-11-12T22:57:51.750Z,0.60
2018-11-12T23:00:20.776Z,0.70
2018-11-12T23:02:49.013Z,0.70
2018-11-12T23:05:18.002Z,0.60
2018-11-12T23:07:46.988Z,0.70
2018-11-12T23:10:16.008Z,0.67
2018-11-12T23:12:44.254Z,0.70
2018-11-12T23:15:12.474Z,0.70
2018-11-12T23:17:40.720Z,0.70
2018-11-12T23:20:09.707Z,0.63
2018-11-12T23:22:38.709Z,0.70
2018-11-12T23:25:07.686Z,0.70
2018-11-12T23:27:35.938Z,0.70
2018-11-12T23:30:04.191Z,0.70
2018-11-12T23:32:32.446Z,0.70
2018-11-12T23:35:01.499Z,0.70
2018-11-12T23:37:29.698Z,0.70
2018-11-12T23:39:58.714Z,0.70
2018-11-12T23:42:26.918Z,0.70
2018-11-12T23:44:55.195Z,0.60
2018-11-12T23:47:23.388Z,0.70
2018-11-12T23:49:51.618Z,0.77
2018-11-12T23:52:19.821Z,0.70
2018-11-12T23:54:48.076Z,0.70
2018-11-12T23:57:16.284Z,0.70
2018-11-12T23:59:45.060Z,0.73
